Main page
METAR-TAF:

METAR-TAF

Airports :

Girona, Spain

Girona–Costa Brava Airport

latitude: 41-54N, longitude: 002-46E, elevation: 143 m

Current weather observation

The report was made 38 minutes ago, at 16:00 UTC
Wind 15 kt from the South
Temperature 29°C
Humidity 52%
Pressure 1012 hPa
Visibility 10 km or more
Few clouds at a height of 3000 ft

METAR: LEGE 221600Z 19015KT 9999 FEW030 29/18 Q1012

Time: 18:38 (16:38 UTC)

Forecast

The report was made 5 hours and 38 minutes ago, at 11:00 UTC
Forecast valid from 22 at 12 UTC to 23 at 12 UTC
Wind 12 kt from the South
Visibility 10 km or more
Few clouds at a height of 4000 ft
Probability 40% :
Temporary
from 22 at 12 UTC to 22 at 18 UTC
Few clouds at a height of 3000 ft, Cumulonimbus.
Becoming
from 22 at 19 UTC to 22 at 21 UTC
Wind 3 kt from variable directions

TAF: LEGE 221100Z 2212/2312 18012KT 9999 FEW040 TX32/2213Z TN16/2305Z PROB40 TEMPO 2212/2218 FEW030CB BECMG 2219/2221 VRB03KT

Weather observations and forecasts of more than 4000 airports (METAR and TAF reports).

The available stations are represented by yellow and red dots on the map.

Hover mouse over dot to see the name of the station.

Then click to see weather observations and forecasts.

To change the map : click on the green buttons with a black cross to zoom in, on the green button with a dash to zoom out, or on the green arrows for adjacent maps.


METAR-TAF: